Other Surface Observations
Issued by NWS Missoula, MT

Home | Current Version | Previous Version | Text Only | Print | Product List | Glossary On
Versions: 1 2 3 4 5 6 7 8 9 10 11 12 13 14 15 16 17 18 19 20 21 22 23 24 25 26 27 28 29 30 31 32 33 34 35 36 37 38 39 40 41 42 43 44 45 46 47 48 49 50
000
SXUS55 KMSO 010333
OSOMSO
MONTANA AWOS SUMMARY
NATIONAL WEATHER SERVICE MISSOULA MT
933 PM MDT FRI SEP 30 2016

Montana AWOS Reports

LAUREL      |K6S8 010315Z AUTO 00000KT 40SM 17/08 A3001 RMK AO1 T01720078
TWIN BRIDGES|K7S1 010315Z AUTO 12004KT 40SM 16/04 A3006 RMK AO1 T01610044
ROUNDUP     |KRPX 010315Z AUTO 00000KT 40SM 19/08 A2993 RMK AO1 T01890083
SCOBEY      |K9S2 010255Z AUTO 12005KT 25SM 16/09 A2997 RMK AO1 T01560089
EKALAKA     |K97M 010255Z AUTO 14006KT 40SM 17/09 A3000 RMK AO1 T01670089
LAUREL      |K6S8 010255Z AUTO 00000KT 40SM 17/08 A3001 RMK AO1 T01720078
TWIN BRIDGES|K7S1 010255Z AUTO 08005KT 40SM 15/03 A3006 RMK AO1 T01500033




USA.gov is the U.S. government's official web portal to all federal, state and local government web resources and services.